KIOB

Mount Sterling-Montgomery County Airport

Mount Sterling, Kentucky, USA
METAR KIOB 170655Z AUTO 23004KT 4SM BR CLR 05/04 A3015 RMK AO2
Observed Flight Rules
Dec-17 @ 06:55 UTC (34 minutes ago) Marginal Visual Flight Rules
Wind Visibility Clouds Conditions
230° at 4 knots 4 miles
  • Clear skies
  • Mist
Temperatures Readings
Current 5°C / 41°F
Dewpoint 4°C / 39°F
Humidity 93%
Altimeter 30.15" Hg
Pressure 1021 hPa
Elevation 311
METAR KIOB 170655Z AUTO 23004KT 4SM BR CLR 05/04 A3015 RMK AO2
Observed Flight Rules
Dec-17 @ 06:55 UTC
(34 minutes ago)
MVFR
Wind Visibility
230° at 4 knots 4 miles
Clouds
  • Clear skies
Conditions
  • Mist
Temperature Dewpoint
5°C / 41°F 4°C / 39°F
Humidity Altimeter Pressure
93% 30.15" Hg 1021 hPa